Time;durP1;ratioP1;P1;durP2;ratioP2;P2;SDS_P1;SDS_P2;PMS_P1;PMS_P2;Temp;Humidity;BMP_temperature;BMP_pressure;BME280_temperature;BME280_humidity;BME280_pressure;Samples;Min_cycle;Max_cycle;Signal;HPM_P1;HPM_P2
2023/05/28 00:01:49;;;;;;;9.85;5.53;;;;;;;16.11;82.61;99153.63;4888160;29;20036;-94
2023/05/28 00:04:16;;;;;;;6.75;4.93;;;;;;;16.20;82.65;99164.53;4887393;29;20035;-95
2023/05/28 00:06:41;;;;;;;8.52;5.90;;;;;;;16.08;82.75;99152.34;4903789;29;20032;-94
2023/05/28 00:09:07;;;;;;;8.18;5.38;;;;;;;16.22;82.03;99173.19;4903029;29;20199;-94
2023/05/28 00:11:33;;;;;;;9.02;5.82;;;;;;;16.13;83.11;99173.94;4887498;29;20119;-92
2023/05/28 00:13:58;;;;;;;6.88;5.22;;;;;;;16.09;82.95;99166.72;4887599;29;20503;-93
2023/05/28 00:16:25;;;;;;;7.65;6.07;;;;;;;16.07;83.10;99168.94;4887170;29;20038;-93
2023/05/28 00:18:50;;;;;;;11.32;6.10;;;;;;;15.95;83.34;99150.47;4903086;29;20028;-93
2023/05/28 00:21:16;;;;;;;7.75;5.97;;;;;;;15.92;83.29;99145.69;4888215;29;20039;-93
2023/05/28 00:23:41;;;;;;;9.20;5.63;;;;;;;15.92;84.40;99160.06;4887621;29;20029;-93
2023/05/28 00:26:07;;;;;;;7.28;5.75;;;;;;;15.90;84.34;99170.44;4888375;29;20032;-92
2023/05/28 00:28:32;;;;;;;9.15;5.95;;;;;;;15.87;84.42;99164.81;4887445;29;20028;-93
2023/05/28 00:30:58;;;;;;;9.02;6.53;;;;;;;15.75;85.52;99154.50;4888120;29;20072;-92
2023/05/28 00:33:23;;;;;;;9.60;6.47;;;;;;;15.80;85.65;99157.09;4887393;29;20063;-94
2023/05/28 00:35:54;;;;;;;10.75;6.90;;;;;;;15.66;85.82;99145.44;4903630;29;20414;-93
2023/05/28 00:38:20;;;;;;;10.83;7.00;;;;;;;15.76;85.73;99156.91;4904405;29;20032;-94
2023/05/28 00:40:45;;;;;;;10.23;7.13;;;;;;;15.67;86.76;99136.22;4887171;29;20384;-92
2023/05/28 00:43:12;;;;;;;11.52;7.03;;;;;;;15.75;87.06;99160.72;4887165;29;20402;-94
2023/05/28 00:45:37;;;;;;;12.27;8.07;;;;;;;15.75;86.95;99151.78;4887031;29;20122;-94
2023/05/28 00:48:03;;;;;;;10.57;7.15;;;;;;;15.91;87.28;99171.22;4888552;29;20083;-93
2023/05/28 00:50:28;;;;;;;10.68;7.80;;;;;;;15.81;86.64;99141.59;4891408;29;20024;-93
2023/05/28 00:52:54;;;;;;;13.95;7.93;;;;;;;15.83;87.32;99145.59;4891609;29;20025;-93
2023/05/28 00:55:19;;;;;;;11.60;7.90;;;;;;;15.89;86.97;99152.50;4906430;29;20497;-93
2023/05/28 00:57:46;;;;;;;11.32;7.93;;;;;;;15.93;86.92;99152.69;4891543;29;20142;-93
2023/05/28 01:00:13;;;;;;;13.07;8.15;;;;;;;15.99;86.38;99159.63;4890702;29;20040;-93
2023/05/28 01:02:39;;;;;;;13.13;7.32;;;;;;;15.92;87.18;99135.63;4906489;29;20052;-94
2023/05/28 01:05:05;;;;;;;10.43;7.70;;;;;;;15.90;86.87;99139.75;4891121;29;20028;-93
2023/05/28 01:07:32;;;;;;;9.23;7.82;;;;;;;16.04;86.49;99164.09;4891627;29;20391;-95
2023/05/28 01:09:57;;;;;;;9.65;6.57;;;;;;;15.81;86.23;99133.44;4906476;29;20028;-93
2023/05/28 01:12:23;;;;;;;14.25;7.40;;;;;;;15.88;86.32;99144.69;4891210;29;20024;-94
2023/05/28 01:14:49;;;;;;;12.30;6.70;;;;;;;15.97;86.16;99148.25;4890857;29;20032;-93
2023/05/28 01:17:15;;;;;;;10.38;7.38;;;;;;;15.86;86.47;99147.72;4890797;29;20032;-93
2023/05/28 01:19:42;;;;;;;14.00;7.45;;;;;;;15.92;86.80;99161.97;4890204;29;20494;-93
2023/05/28 01:22:08;;;;;;;12.52;6.82;;;;;;;15.80;86.46;99134.56;4890799;29;20554;-93
2023/05/28 01:24:36;;;;;;;13.85;6.78;;;;;;;15.85;86.92;99156.16;4907067;29;20119;-93
2023/05/28 01:27:02;;;;;;;8.32;6.55;;;;;;;15.78;86.82;99134.09;4891761;29;20095;-93
2023/05/28 01:29:27;;;;;;;9.15;7.15;;;;;;;15.69;86.82;99132.06;4905802;29;20557;-93
2023/05/28 01:31:53;;;;;;;12.00;6.90;;;;;;;15.72;86.99;99136.13;4890740;29;20039;-93
2023/05/28 01:34:18;;;;;;;14.15;6.93;;;;;;;15.75;87.75;99143.66;4890286;29;20032;-93
2023/05/28 01:36:49;;;;;;;8.77;6.82;;;;;;;15.82;86.65;99135.88;4890760;29;20060;-94
2023/05/28 01:39:17;;;;;;;9.35;6.38;;;;;;;15.87;86.15;99135.72;4890633;29;20058;-91
2023/05/28 01:41:43;;;;;;;7.40;5.88;;;;;;;15.80;86.02;99126.44;4890022;29;20048;-93
2023/05/28 01:44:12;;;;;;;8.10;6.68;;;;;;;15.86;86.17;99127.91;4889659;29;20028;-93
2023/05/28 01:46:38;;;;;;;10.50;6.60;;;;;;;15.76;85.44;99129.75;4890925;29;20059;-92
2023/05/28 01:49:04;;;;;;;9.23;6.82;;;;;;;15.73;85.33;99129.59;4889743;29;20024;-92
2023/05/28 01:51:29;;;;;;;11.25;6.40;;;;;;;15.76;85.16;99129.75;4889390;29;20032;-92
2023/05/28 01:53:55;;;;;;;10.55;6.03;;;;;;;15.76;85.50;99128.97;4903890;29;20031;-93
2023/05/28 01:56:22;;;;;;;11.07;5.90;;;;;;;15.96;85.33;99149.38;4890115;29;20475;-93
2023/05/28 01:58:47;;;;;;;9.63;6.38;;;;;;;15.86;84.41;99126.00;4889497;29;20035;-93
2023/05/28 02:01:27;;;;;;;9.35;6.13;;;;;;;15.99;85.13;99147.97;4889233;29;20032;-93
2023/05/28 02:03:53;;;;;;;7.70;5.97;;;;;;;15.83;84.42;99142.88;4904379;29;20515;-93
2023/05/28 02:06:19;;;;;;;11.52;5.97;;;;;;;15.69;84.56;99117.72;4889548;29;20032;-93
2023/05/28 02:08:45;;;;;;;10.88;6.40;;;;;;;15.93;84.28;99150.00;4889820;29;20032;-93
2023/05/28 02:11:10;;;;;;;12.40;6.43;;;;;;;15.85;84.31;99142.59;4889677;29;20043;-92
2023/05/28 02:13:39;;;;;;;7.60;5.93;;;;;;;15.92;84.26;99146.47;4888816;29;20131;-93
2023/05/28 02:16:06;;;;;;;6.38;5.53;;;;;;;16.03;84.35;99151.66;4905528;29;20063;-92
2023/05/28 02:18:36;;;;;;;6.90;5.35;;;;;;;15.88;83.36;99131.13;4890432;29;20071;-92
2023/05/28 02:21:02;;;;;;;9.93;5.80;;;;;;;15.88;83.27;99137.34;4904891;29;20099;-92
2023/05/28 02:23:27;;;;;;;7.90;5.88;;;;;;;15.83;83.02;99140.16;4889571;29;20491;-92
2023/05/28 02:25:53;;;;;;;8.50;5.63;;;;;;;15.99;83.14;99153.38;4888784;29;20031;-94
2023/05/28 02:28:18;;;;;;;9.07;5.28;;;;;;;15.93;82.60;99150.78;4889183;29;20035;-93
2023/05/28 02:30:44;;;;;;;6.63;5.47;;;;;;;15.92;82.34;99142.97;4890383;29;20024;-92
2023/05/28 02:33:09;;;;;;;9.05;5.60;;;;;;;15.88;82.86;99148.22;4889097;29;20036;-93
2023/05/28 02:35:35;;;;;;;8.55;5.57;;;;;;;15.78;82.87;99129.44;4889413;29;20028;-93
2023/05/28 02:38:01;;;;;;;9.70;5.68;;;;;;;15.88;83.28;99147.41;4889816;29;20532;-93
2023/05/28 02:40:26;;;;;;;8.95;5.53;;;;;;;15.89;83.04;99149.78;4889647;29;20038;-93
2023/05/28 02:42:52;;;;;;;10.70;5.43;;;;;;;15.92;83.19;99132.91;4888845;29;20032;-92
2023/05/28 02:45:17;;;;;;;9.30;5.55;;;;;;;16.02;82.91;99150.88;4903616;29;20028;-94
2023/05/28 02:47:43;;;;;;;8.88;5.38;;;;;;;16.01;83.57;99154.69;4888827;29;20491;-93
2023/05/28 02:50:09;;;;;;;7.25;5.43;;;;;;;15.88;84.03;99134.63;4888885;29;20039;-93
2023/05/28 02:52:34;;;;;;;11.35;6.00;;;;;;;15.85;84.18;99124.38;4888150;29;20028;-95
2023/05/28 02:55:00;;;;;;;8.02;5.88;;;;;;;15.75;84.87;99143.66;4888277;29;20088;-94
2023/05/28 02:57:25;;;;;;;7.30;5.70;;;;;;;15.70;85.32;99132.88;4888705;29;20083;-93
2023/05/28 02:59:51;;;;;;;8.68;5.70;;;;;;;15.70;84.77;99130.16;4889036;29;20028;-94
2023/05/28 03:02:20;;;;;;;5.93;5.13;;;;;;;15.74;84.66;99131.19;4888432;29;20066;-93
2023/05/28 03:04:45;;;;;;;9.70;5.63;;;;;;;15.71;85.72;99139.91;4904543;29;20035;-93
2023/05/28 03:07:11;;;;;;;8.38;5.55;;;;;;;15.62;85.74;99133.59;4888308;29;20033;-93
2023/05/28 03:09:37;;;;;;;7.43;5.53;;;;;;;15.65;85.55;99130.28;4889018;29;20032;-94
2023/05/28 03:12:06;;;;;;;8.80;5.60;;;;;;;15.78;85.25;99151.16;4888143;29;20036;-94
2023/05/28 03:14:31;;;;;;;7.55;5.70;;;;;;;15.71;85.34;99157.00;4889029;29;20512;-94
2023/05/28 03:16:57;;;;;;;10.13;5.53;;;;;;;15.77;85.23;99163.13;4889227;29;20043;-95
2023/05/28 03:19:22;;;;;;;7.63;5.50;;;;;;;15.73;85.00;99154.81;4904855;29;20042;-94
2023/05/28 03:21:48;;;;;;;8.80;5.72;;;;;;;15.76;84.89;99154.19;4888710;29;20054;-93
2023/05/28 03:24:13;;;;;;;8.88;5.68;;;;;;;15.76;84.44;99153.38;4888433;29;20032;-94
2023/05/28 03:26:39;;;;;;;10.75;6.28;;;;;;;15.81;84.41;99160.59;4887726;29;20024;-94
2023/05/28 03:29:04;;;;;;;8.50;5.45;;;;;;;15.72;84.79;99146.97;4888955;29;20036;-94
2023/05/28 03:31:30;;;;;;;8.82;6.05;;;;;;;15.78;85.26;99161.22;4889000;29;20040;-95
2023/05/28 03:33:55;;;;;;;11.02;6.28;;;;;;;15.65;84.93;99150.09;4888327;29;20058;-93
2023/05/28 03:36:22;;;;;;;8.10;6.38;;;;;;;15.73;84.68;99159.44;4903864;29;20028;-93
2023/05/28 03:38:47;;;;;;;8.25;5.97;;;;;;;15.61;85.57;99140.94;4889094;29;20040;-93
2023/05/28 03:41:13;;;;;;;8.95;6.10;;;;;;;15.63;85.21;99151.50;4888718;29;20039;-94
2023/05/28 03:43:38;;;;;;;12.30;6.53;;;;;;;15.64;84.38;99147.69;4888859;29;20039;-94
2023/05/28 03:46:04;;;;;;;7.32;5.90;;;;;;;15.72;84.48;99161.34;4888168;29;20063;-93
2023/05/28 03:48:30;;;;;;;8.27;5.95;;;;;;;15.67;84.03;99139.72;4889522;29;20067;-93
2023/05/28 03:50:56;;;;;;;10.77;5.97;;;;;;;15.66;84.60;99150.88;4888195;29;20035;-93
2023/05/28 03:53:22;;;;;;;11.65;6.43;;;;;;;15.67;85.03;99161.44;4888638;29;20035;-94
2023/05/28 03:55:48;;;;;;;12.57;6.13;;;;;;;15.78;84.55;99162.03;4887635;29;20051;-93
2023/05/28 03:58:15;;;;;;;9.25;6.25;;;;;;;15.73;84.49;99159.44;4888377;29;20032;-94
2023/05/28 04:00:41;;;;;;;15.45;6.35;;;;;;;15.72;84.79;99147.75;4888408;29;20044;-94
2023/05/28 04:03:06;;;;;;;9.40;6.60;;;;;;;15.74;85.58;99178.13;4888203;29;20076;-93
2023/05/28 04:05:33;;;;;;;10.35;6.40;;;;;;;15.85;84.55;99180.59;4887954;29;20028;-94
2023/05/28 04:07:59;;;;;;;7.85;5.80;;;;;;;15.84;84.26;99162.72;4886966;29;20547;-94
2023/05/28 04:10:24;;;;;;;9.20;6.10;;;;;;;15.90;83.46;99177.78;4886465;29;20055;-94
2023/05/28 04:12:50;;;;;;;9.38;6.00;;;;;;;15.89;83.57;99179.66;4903037;29;20028;-95
2023/05/28 04:15:16;;;;;;;8.75;6.07;;;;;;;15.86;83.44;99174.06;4887900;29;20496;-94
2023/05/28 04:17:41;;;;;;;8.07;6.18;;;;;;;15.87;84.87;99192.75;4903040;29;20107;-94
2023/05/28 04:20:10;;;;;;;9.25;6.10;;;;;;;15.80;83.99;99170.66;4887559;29;20028;-93
2023/05/28 04:22:36;;;;;;;9.45;6.25;;;;;;;15.89;84.19;99174.22;4887590;29;20047;-94
2023/05/28 04:25:02;;;;;;;10.27;5.72;;;;;;;15.91;84.08;99173.94;4887890;29;20036;-94
2023/05/28 04:27:30;;;;;;;11.27;6.40;;;;;;;16.10;83.15;99190.03;4902951;29;20035;-93
2023/05/28 04:29:56;;;;;;;8.15;6.20;;;;;;;15.99;83.14;99181.34;4903647;29;20039;-94
2023/05/28 04:32:23;;;;;;;8.60;5.75;;;;;;;16.13;83.18;99192.94;4903131;29;20020;-92
2023/05/28 04:34:48;;;;;;;9.60;6.00;;;;;;;16.16;82.76;99180.66;4887130;29;20094;-94
2023/05/28 04:37:16;;;;;;;10.52;6.25;;;;;;;16.27;83.11;99189.34;4886810;29;20032;-95
2023/05/28 04:39:42;;;;;;;11.80;6.35;;;;;;;16.16;83.21;99183.38;4903194;29;20055;-94
2023/05/28 04:42:09;;;;;;;15.32;7.00;;;;;;;16.23;83.01;99202.75;4887182;29;20020;-93
2023/05/28 04:44:34;;;;;;;12.00;6.97;;;;;;;16.17;82.80;99195.84;4887355;29;20032;-94
2023/05/28 04:47:00;;;;;;;12.27;6.82;;;;;;;16.12;83.24;99187.81;4902399;29;20032;-94
2023/05/28 04:49:26;;;;;;;8.70;6.03;;;;;;;16.29;82.89;99209.66;4886760;29;20039;-94
2023/05/28 04:51:52;;;;;;;10.85;7.03;;;;;;;16.16;82.47;99197.78;4886754;29;20459;-93
2023/05/28 04:54:17;;;;;;;8.57;6.53;;;;;;;16.23;82.09;99204.66;4887239;29;20032;-94
2023/05/28 04:56:46;;;;;;;9.43;6.70;;;;;;;16.18;82.69;99194.72;4886629;29;20055;-94
2023/05/28 04:59:12;;;;;;;8.75;6.68;;;;;;;16.12;83.15;99172.34;4886490;29;20024;-93
2023/05/28 05:01:39;;;;;;;11.27;6.80;;;;;;;16.31;82.19;99206.63;4886788;29;20055;-94
2023/05/28 05:04:06;;;;;;;10.90;6.75;;;;;;;16.19;82.84;99200.97;4887258;29;20035;-94
2023/05/28 05:06:32;;;;;;;12.57;7.20;;;;;;;16.12;83.22;99188.63;4886252;29;20027;-94
2023/05/28 05:08:58;;;;;;;11.88;7.45;;;;;;;16.23;83.33;99212.81;4902505;29;20051;-94
2023/05/28 05:11:26;;;;;;;9.45;6.72;;;;;;;16.14;83.67;99191.03;4886128;29;20059;-93
2023/05/28 05:13:52;;;;;;;11.95;6.60;;;;;;;16.30;82.61;99207.75;4902399;29;20419;-94
2023/05/28 05:16:18;;;;;;;13.48;6.78;;;;;;;16.21;83.06;99188.69;4886915;29;20036;-94
2023/05/28 05:18:44;;;;;;;9.52;6.35;;;;;;;16.35;82.53;99203.00;4885851;29;20410;-94
2023/05/28 05:21:11;;;;;;;9.20;6.53;;;;;;;16.28;83.02;99189.03;4885549;29;20036;-94
2023/05/28 05:23:36;;;;;;;10.52;6.30;;;;;;;16.33;82.84;99207.94;4902084;29;20024;-95
2023/05/28 05:26:02;;;;;;;13.82;6.72;;;;;;;16.26;82.10;99193.19;4887271;29;20043;-95
2023/05/28 05:28:27;;;;;;;10.63;6.68;;;;;;;16.40;82.42;99191.19;4887562;29;20043;-94
2023/05/28 05:30:53;;;;;;;8.82;6.55;;;;;;;16.46;82.13;99200.00;4886459;29;20479;-94
2023/05/28 05:33:18;;;;;;;10.73;6.65;;;;;;;16.51;81.94;99192.50;4886894;29;20024;-95
2023/05/28 05:35:44;;;;;;;13.40;7.03;;;;;;;16.50;82.37;99196.34;4889837;29;20586;-95
2023/05/28 05:38:12;;;;;;;11.00;6.32;;;;;;;16.53;81.92;99203.06;4889778;29;20039;-94
2023/05/28 05:40:37;;;;;;;9.82;6.25;;;;;;;16.71;81.39;99215.63;4890045;29;20051;-94
2023/05/28 05:43:03;;;;;;;11.38;6.75;;;;;;;16.59;81.38;99201.84;4890992;29;20066;-94
2023/05/28 05:45:28;;;;;;;9.73;6.00;;;;;;;16.73;81.12;99235.16;4889385;29;20099;-95
2023/05/28 05:47:54;;;;;;;11.13;6.38;;;;;;;16.75;81.60;99234.84;4888733;29;20032;-93
2023/05/28 05:50:20;;;;;;;13.88;6.53;;;;;;;16.59;80.79;99212.69;4889129;29;20036;-93
2023/05/28 05:52:46;;;;;;;13.43;7.72;;;;;;;16.41;82.48;99219.16;4889505;29;20067;-93
2023/05/28 05:55:11;;;;;;;13.70;6.75;;;;;;;16.47;82.38;99215.19;4889393;29;20036;-94
2023/05/28 05:57:37;;;;;;;9.10;6.60;;;;;;;16.57;81.47;99221.16;4888703;29;20056;-92
2023/05/28 06:00:08;;;;;;;10.32;6.38;;;;;;;16.46;81.89;99208.97;4889171;29;20548;-92
2023/05/28 06:02:35;;;;;;;13.00;7.07;;;;;;;16.47;83.05;99231.50;4888866;29;20032;-93
2023/05/28 06:05:06;;;;;;;13.13;7.03;;;;;;;16.43;82.64;99220.44;4896814;29;20096;-93
2023/05/28 06:07:52;;;;;;;9.00;6.57;;;;;;;16.38;81.85;99206.19;4905176;29;20032;-92
2023/05/28 06:10:18;;;;;;;11.32;7.15;;;;;;;16.49;81.75;99229.28;4903666;29;20040;-93
2023/05/28 06:12:44;;;;;;;10.93;7.30;;;;;;;16.40;83.10;99229.22;4905454;29;20039;-93
2023/05/28 06:15:10;;;;;;;9.77;6.72;;;;;;;16.48;82.91;99214.09;4889720;29;20043;-91
2023/05/28 06:17:35;;;;;;;16.13;7.53;;;;;;;16.43;82.80;99222.38;4890047;29;20032;-93
2023/05/28 06:20:01;;;;;;;10.63;7.25;;;;;;;16.58;81.85;99227.41;4890063;29;20479;-92
2023/05/28 06:22:26;;;;;;;10.70;7.03;;;;;;;16.41;82.24;99206.38;4888619;29;20028;-92
2023/05/28 06:24:54;;;;;;;10.68;7.38;;;;;;;16.55;82.47;99225.31;4888618;29;20475;-91
2023/05/28 06:27:20;;;;;;;11.70;7.45;;;;;;;16.67;82.06;99220.09;4888571;29;20044;-92
2023/05/28 06:29:50;;;;;;;12.88;6.80;;;;;;;16.70;81.91;99229.53;4889530;29;20035;-93
2023/05/28 06:32:16;;;;;;;10.10;7.22;;;;;;;16.56;81.74;99225.00;4889264;29;20203;-93
2023/05/28 06:34:41;;;;;;;11.88;7.35;;;;;;;16.67;81.85;99241.06;4888525;29;20048;-94
2023/05/28 06:37:08;;;;;;;9.43;6.40;;;;;;;16.52;81.48;99215.06;4889472;29;20059;-94
2023/05/28 06:39:34;;;;;;;11.50;6.65;;;;;;;16.65;81.95;99232.41;4888745;29;20388;-93
2023/05/28 06:42:00;;;;;;;9.52;6.88;;;;;;;16.68;81.93;99226.34;4888138;29;20028;-93
2023/05/28 06:44:26;;;;;;;9.82;7.47;;;;;;;16.71;81.72;99226.53;4888121;29;20024;-93
2023/05/28 06:46:51;;;;;;;11.43;6.57;;;;;;;16.72;82.30;99222.66;4887758;29;20039;-93
2023/05/28 06:49:17;;;;;;;10.25;6.82;;;;;;;16.87;80.52;99232.38;4889281;29;20028;-92
2023/05/28 06:51:42;;;;;;;10.93;7.00;;;;;;;16.96;80.82;99243.28;4887970;29;20028;-93
2023/05/28 06:54:08;;;;;;;12.70;6.97;;;;;;;16.93;81.48;99224.88;4888395;29;20031;-94
2023/05/28 06:56:34;;;;;;;12.73;7.07;;;;;;;16.96;81.08;99240.56;4888890;29;20048;-93
2023/05/28 06:58:59;;;;;;;10.27;7.00;;;;;;;16.85;80.93;99231.06;4887719;29;20043;-92
2023/05/28 07:01:25;;;;;;;11.32;6.80;;;;;;;16.82;80.55;99221.63;4889629;29;20577;-94
2023/05/28 07:03:50;;;;;;;12.15;6.53;;;;;;;17.03;80.99;99254.50;4888489;29;20036;-94
2023/05/28 07:06:18;;;;;;;10.63;6.82;;;;;;;17.01;80.58;99232.25;4889155;29;20055;-94
2023/05/28 07:08:46;;;;;;;9.70;6.55;;;;;;;16.97;81.22;99228.56;4887904;29;20047;-94
2023/05/28 07:11:13;;;;;;;10.50;6.85;;;;;;;17.00;80.80;99217.06;4888696;29;20028;-94
2023/05/28 07:13:39;;;;;;;10.85;6.60;;;;;;;17.01;80.64;99236.91;4891574;29;20028;-92
2023/05/28 07:16:05;;;;;;;12.13;7.03;;;;;;;17.27;80.10;99247.88;4908278;29;20075;-92
2023/05/28 07:18:34;;;;;;;11.23;7.00;;;;;;;17.13;79.92;99216.13;4906034;29;20028;-93
2023/05/28 07:21:01;;;;;;;11.07;7.15;;;;;;;17.19;79.81;99229.63;4922010;29;20060;-93
2023/05/28 07:23:27;;;;;;;9.40;6.72;;;;;;;17.31;79.79;99243.41;4888947;29;20020;-93
2023/05/28 07:25:52;;;;;;;11.43;6.70;;;;;;;17.12;80.41;99224.59;4904674;29;20450;-92
2023/05/28 07:28:18;;;;;;;10.30;7.05;;;;;;;17.15;80.12;99226.72;4890101;29;20028;-96
2023/05/28 07:30:44;;;;;;;10.07;6.47;;;;;;;17.22;79.46;99237.94;4888510;29;20487;-95
2023/05/28 07:33:10;;;;;;;10.82;7.88;;;;;;;17.27;80.16;99237.78;4887988;29;20039;-94
2023/05/28 07:35:36;;;;;;;13.32;7.13;;;;;;;17.15;80.92;99229.44;4888260;29;20407;-95
2023/05/28 07:38:02;;;;;;;13.77;6.85;;;;;;;17.32;80.80;99232.19;4887885;29;20032;-94
2023/05/28 07:40:27;;;;;;;11.75;6.68;;;;;;;17.57;80.71;99248.91;4886404;29;20035;-93
2023/05/28 07:42:53;;;;;;;9.27;6.63;;;;;;;17.46;80.84;99223.09;4887399;29;20038;-94
2023/05/28 07:45:18;;;;;;;8.52;6.05;;;;;;;17.49;80.68;99217.84;4887272;29;20063;-95
2023/05/28 07:47:44;;;;;;;6.75;5.43;;;;;;;17.73;79.88;99254.69;4887762;29;20039;-94
2023/05/28 07:50:10;;;;;;;7.90;5.68;;;;;;;17.62;81.28;99229.69;4886945;29;20105;-93
2023/05/28 07:52:36;;;;;;;8.32;5.35;;;;;;;17.50;80.64;99215.91;4888094;29;20024;-93
2023/05/28 07:55:03;;;;;;;6.47;4.50;;;;;;;17.44;80.49;99228.06;4888154;29;20066;-96
2023/05/28 07:57:28;;;;;;;7.00;4.10;;;;;;;17.60;79.91;99221.03;4887965;29;20048;-92
2023/05/28 07:59:54;;;;;;;4.75;3.78;;;;;;;17.75;80.86;99228.75;4901832;29;20038;-95
2023/05/28 08:02:22;;;;;;;7.90;5.53;;;;;;;17.86;79.60;99229.25;4888101;29;20043;-95
2023/05/28 08:04:50;;;;;;;6.85;5.10;;;;;;;17.74;79.96;99210.81;4903114;29;20392;-94
2023/05/28 08:07:16;;;;;;;11.02;5.25;;;;;;;17.82;80.16;99235.63;4893132;29;20024;-93
2023/05/28 08:09:42;;;;;;;10.75;6.80;;;;;;;17.85;79.28;99216.75;4902970;29;20028;-93
2023/05/28 08:12:09;;;;;;;10.68;6.20;;;;;;;18.16;78.55;99230.19;4889434;29;20099;-94
2023/05/28 08:14:34;;;;;;;9.27;6.38;;;;;;;18.42;76.82;99218.44;4889979;29;20034;-94
2023/05/28 08:17:02;;;;;;;8.38;6.60;;;;;;;18.87;76.55;99219.94;4888849;29;20411;-95
2023/05/28 08:19:28;;;;;;;12.07;6.53;;;;;;;19.06;75.95;99205.91;4887626;29;20028;-95
2023/05/28 08:21:57;;;;;;;7.82;6.32;;;;;;;19.27;74.30;99195.00;4888924;29;20032;-95
2023/05/28 08:24:22;;;;;;;9.75;6.43;;;;;;;19.62;73.78;99231.09;4890160;29;20036;-95
2023/05/28 08:26:48;;;;;;;8.30;5.53;;;;;;;19.66;73.00;99217.56;4890168;29;20035;-94
2023/05/28 08:29:13;;;;;;;8.57;6.60;;;;;;;19.83;73.24;99216.66;4889583;29;20456;-94
2023/05/28 08:31:42;;;;;;;8.40;5.88;;;;;;;19.98;71.98;99205.91;4888812;29;20028;-92
2023/05/28 08:34:08;;;;;;;7.03;5.82;;;;;;;20.03;71.47;99191.25;4901870;29;20031;-93
2023/05/28 08:36:36;;;;;;;7.47;5.53;;;;;;;20.02;70.79;99175.16;4901617;29;20028;-92
2023/05/28 08:39:08;;;;;;;8.27;5.57;;;;;;;20.09;70.12;99195.38;4917398;29;20028;-91
2023/05/28 08:41:56;;;;;;;14.15;6.47;;;;;;;19.94;71.74;99209.63;4917479;29;20141;-91
2023/05/28 08:44:21;;;;;;;9.15;5.60;;;;;;;19.82;71.61;99191.28;4900814;29;20028;-90
2023/05/28 08:46:50;;;;;;;7.47;5.80;;;;;;;19.73;72.82;99187.81;4903076;29;20035;-93
2023/05/28 08:49:22;;;;;;;11.05;5.97;;;;;;;19.56;72.88;99199.63;4903760;29;20043;-93
2023/05/28 08:51:51;;;;;;;8.40;6.40;;;;;;;19.78;72.67;99184.88;4887990;29;20491;-92
2023/05/28 08:54:17;;;;;;;7.85;5.50;;;;;;;19.93;71.65;99180.72;4904037;29;20280;-93
2023/05/28 08:56:43;;;;;;;7.55;5.55;;;;;;;20.02;70.20;99178.69;4888801;29;20115;-93
2023/05/28 08:59:10;;;;;;;10.57;5.70;;;;;;;20.07;69.21;99170.31;4893065;29;20020;-93
2023/05/28 09:01:37;;;;;;;7.18;5.20;;;;;;;20.14;72.48;99188.88;4912111;29;20032;-94
2023/05/28 09:04:03;;;;;;;11.50;5.72;;;;;;;20.08;70.93;99192.97;4901515;29;20024;-91
2023/05/28 09:06:33;;;;;;;8.55;5.97;;;;;;;20.27;70.98;99179.56;4910408;29;20106;-94
2023/05/28 09:08:59;;;;;;;7.63;5.55;;;;;;;20.43;70.23;99178.94;4908119;29;20032;-94
2023/05/28 09:11:24;;;;;;;8.02;5.32;;;;;;;20.60;68.76;99192.44;4910989;29;20027;-92
2023/05/28 09:13:50;;;;;;;9.38;5.20;;;;;;;20.47;69.38;99185.31;4894876;29;20032;-92
2023/05/28 09:16:22;;;;;;;8.23;5.60;;;;;;;20.38;70.57;99171.75;4908876;29;20023;-95
2023/05/28 09:18:49;;;;;;;8.52;4.78;;;;;;;20.49;68.58;99180.31;4891685;29;20037;-93
2023/05/28 09:24:38;;;;;;;8.55;4.15;;;;;;;20.55;66.38;99168.81;4924562;29;20047;-92
2023/05/28 09:27:10;;;;;;;6.13;4.30;;;;;;;20.73;65.99;99198.72;4906232;29;20107;-93
2023/05/28 09:29:36;;;;;;;9.93;4.57;;;;;;;20.89;66.19;99176.97;4906621;29;20028;-95
2023/05/28 09:32:02;;;;;;;8.93;4.55;;;;;;;21.12;64.95;99180.03;4921546;29;20031;-94
2023/05/28 09:34:28;;;;;;;6.28;4.40;;;;;;;21.25;64.25;99178.88;4890578;29;20470;-96
2023/05/28 09:37:00;;;;;;;9.82;5.32;;;;;;;21.33;64.97;99166.19;4906896;29;20032;-95
2023/05/28 09:39:28;;;;;;;8.65;4.88;;;;;;;21.64;65.21;99183.94;4922658;29;20410;-95
2023/05/28 09:42:03;;;;;;;7.78;4.43;;;;;;;21.75;64.40;99198.78;4891878;29;20046;-95
2023/05/28 09:44:35;;;;;;;8.57;4.28;;;;;;;21.53;63.17;99189.13;4891284;29;20039;-96
2023/05/28 09:47:00;;;;;;;6.50;4.57;;;;;;;21.34;63.61;99170.53;4906268;29;20486;-95
2023/05/28 09:49:32;;;;;;;8.75;4.90;;;;;;;20.96;64.66;99174.47;4907453;29;20024;-95
2023/05/28 09:51:58;;;;;;;13.73;6.07;;;;;;;20.93;66.99;99189.59;4891673;29;20056;-94
2023/05/28 09:54:28;;;;;;;10.02;5.38;;;;;;;20.92;67.96;99179.81;4907783;29;20060;-95
2023/05/28 09:56:53;;;;;;;7.72;5.53;;;;;;;20.76;67.59;99149.59;4889927;29;20064;-94
2023/05/28 09:59:19;;;;;;;12.77;5.72;;;;;;;20.62;68.57;99145.59;4890778;29;20046;-94
2023/05/28 10:02:19;;;;;;;8.48;6.00;;;;;;;20.35;70.63;99136.88;4889548;29;20044;-95
2023/05/28 10:04:45;;;;;;;12.45;5.85;;;;;;;20.44;69.23;99139.50;4907859;29;20099;-94
2023/05/28 10:07:10;;;;;;;10.30;6.13;;;;;;;20.68;69.69;99160.66;4890713;29;20032;-95
2023/05/28 10:09:36;;;;;;;10.43;6.20;;;;;;;20.56;71.39;99143.03;4891238;29;20514;-93
2023/05/28 10:12:14;;;;;;;10.55;6.63;;;;;;;20.64;70.44;99135.91;4890207;29;20036;-95
2023/05/28 10:14:39;;;;;;;7.63;5.80;;;;;;;20.98;70.98;99137.38;4889938;29;20035;-96
2023/05/28 10:17:07;;;;;;;9.73;5.45;;;;;;;21.14;69.63;99142.16;4906636;29;20032;-95
2023/05/28 10:19:34;;;;;;;7.68;5.65;;;;;;;20.87;69.26;99141.72;4890424;29;20027;-95
2023/05/28 10:21:59;;;;;;;8.25;5.25;;;;;;;21.01;69.56;99152.31;4905839;29;20060;-96
2023/05/28 10:24:25;;;;;;;7.78;5.93;;;;;;;20.96;71.41;99150.63;4889289;29;20032;-96
2023/05/28 10:26:52;;;;;;;10.60;5.88;;;;;;;20.95;69.41;99146.28;4890978;29;20410;-94
2023/05/28 10:29:18;;;;;;;9.75;5.68;;;;;;;21.11;69.72;99156.53;4906641;29;20032;-95
2023/05/28 10:31:43;;;;;;;8.02;4.95;;;;;;;20.83;67.66;99153.69;4907285;29;20039;-93
2023/05/28 10:34:15;;;;;;;9.43;5.28;;;;;;;20.71;68.16;99160.78;4891117;29;20031;-95
2023/05/28 10:36:52;;;;;;;6.60;4.47;;;;;;;20.48;68.43;99160.38;4908342;29;20028;-95
2023/05/28 10:39:18;;;;;;;9.13;5.15;;;;;;;20.37;70.29;99156.47;4907066;29;20471;-94
2023/05/28 10:45:06;;;;;;;8.52;5.22;;;;;;;20.22;71.43;99130.59;4923702;29;20072;-92
2023/05/28 10:47:38;;;;;;;7.63;5.40;;;;;;;20.14;72.09;99135.00;4890350;29;20032;-93
2023/05/28 10:50:11;;;;;;;9.93;5.68;;;;;;;19.96;72.89;99106.25;4906763;29;20111;-94
2023/05/28 10:52:37;;;;;;;7.65;5.15;;;;;;;20.19;73.29;99115.66;4890315;29;20028;-93
2023/05/28 10:55:04;;;;;;;12.43;6.78;;;;;;;20.10;73.82;99101.28;4889015;29;20038;-94
2023/05/28 10:57:43;;;;;;;9.00;6.55;;;;;;;20.25;74.25;99108.03;4890593;29;20574;-95
2023/05/28 11:00:15;;;;;;;8.65;6.80;;;;;;;20.26;74.03;99106.09;4903997;29;20036;-95
2023/05/28 11:02:44;;;;;;;9.85;6.30;;;;;;;20.27;73.83;99127.63;4888662;29;20028;-93
2023/05/28 11:05:10;;;;;;;15.98;6.22;;;;;;;20.14;75.11;99115.88;4888383;29;20040;-94
2023/05/28 11:07:40;;;;;;;8.55;5.95;;;;;;;20.12;75.54;99123.59;4886977;29;20154;-93
2023/05/28 11:10:07;;;;;;;9.95;7.72;;;;;;;20.06;75.72;99105.03;4903343;29;20028;-95
2023/05/28 11:12:35;;;;;;;13.02;6.70;;;;;;;20.02;76.57;99101.38;4887537;29;20091;-92
2023/05/28 11:15:01;;;;;;;10.32;7.10;;;;;;;20.04;77.28;99120.97;4888199;29;20055;-95
2023/05/28 11:17:27;;;;;;;11.23;6.80;;;;;;;19.85;77.14;99111.34;4886928;29;20028;-95
2023/05/28 11:19:53;;;;;;;12.18;6.68;;;;;;;19.79;76.69;99124.41;4888477;29;20514;-95
2023/05/28 11:22:19;;;;;;;11.52;7.00;;;;;;;19.75;76.69;99125.44;4887718;29;20073;-92
2023/05/28 11:24:53;;;;;;;11.38;7.25;;;;;;;19.71;77.13;99138.16;4887317;29;20495;-94
2023/05/28 11:27:23;;;;;;;9.43;7.03;;;;;;;19.49;78.96;99148.28;4887199;29;20078;-94
2023/05/28 11:29:49;;;;;;;12.25;8.18;;;;;;;19.32;79.87;99148.41;4888746;29;20566;-94
2023/05/28 11:32:20;;;;;;;12.10;8.00;;;;;;;19.00;80.52;99131.59;4887717;29;20039;-95
2023/05/28 11:34:47;;;;;;;17.50;8.27;;;;;;;19.04;80.47;99129.81;4888797;29;20024;-94